This is the latest recevied weather packets stored in our database for station/object K9YK-13. If no packets are shown the sender has not sent any weather packets the latest 10 day(s).
| Time | Temp. | Humidity | Pressure | Rain* | Wind** | Luminosity | Snow |
|---|---|---|---|---|---|---|---|
| 1777899670 | 13.89° C | 80% | 0 hPa | 0 mm | - | - | - |
| 1777899370 | 13.33° C | 82% | 0 hPa | 0 mm | - | - | - |
| 1777899070 | 12.78° C | 82% | 0 hPa | 0 mm | - | - | - |
| 1777898770 | 12.22° C | 82% | 0 hPa | 0 mm | - | - | - |
| 1777898470 | 12.78° C | 83% | 0 hPa | 0 mm | - | - | - |
| 1777898170 | 12.78° C | 86% | 0 hPa | 0 mm | - | - | - |
| 1777897870 | 12.78° C | 86% | 0 hPa | 0 mm | - | - | - |
| 1777897570 | 11.67° C | 81% | 0 hPa | 0 mm | - | - | - |
| 1777897270 | 12.22° C | 82% | 0 hPa | 0 mm | - | - | - |
| 1777896970 | 12.22° C | 81% | 0 hPa | 0 mm | - | - | - |
| 1777896670 | 11.67° C | 82% | 0 hPa | 0 mm | - | - | - |
| 1777896370 | 11.67° C | 82% | 0 hPa | 0 mm | - | - | - |
| 1777896070 | 11.11° C | 84% | 0 hPa | 0 mm | - | - | - |
| 1777895770 | 10.56° C | 87% | 0 hPa | 0 mm | - | - | - |
| 1777895470 | 10° C | 90% | 0 hPa | 0 mm | - | - | - |
| 1777895170 | 9.44° C | 92% | 0 hPa | 0 mm | - | - | - |
| 1777894870 | 10° C | 82% | 0 hPa | 0 mm | - | - | - |
| 1777894570 | 10° C | 84% | 0 hPa | 0 mm | - | - | - |
| 1777894270 | 9.44° C | 85% | 0 hPa | 0 mm | - | - | - |
| 1777893971 | 9.44° C | 88% | 0 hPa | 0 mm | - | - | - |
| 1777893670 | 8.89° C | 90% | 0 hPa | 0 mm | - | - | - |
| 1777893370 | 8.89° C | 91% | 0 hPa | 0 mm | - | - | - |
| 1777893070 | 7.78° C | 94% | 0 hPa | 0 mm | - | - | - |
| 1777892770 | 9.44° C | 83% | 0 hPa | 0 mm | - | - | - |
| 1777892470 | 9.44° C | 86% | 0 hPa | 0 mm | - | - | - |
* Rain latest hour (hover to see other rain measurements)
** Current wind speed in m/s (hover to see current wind gust speed)